createdAt,value
2018-05-07T00:00:00.636Z,7.60
2018-05-07T00:02:28.727Z,7.60
2018-05-07T00:04:56.815Z,7.60
2018-05-07T00:07:24.919Z,7.50
2018-05-07T00:09:53.045Z,7.40
2018-05-07T00:12:21.108Z,7.40
2018-05-07T00:14:49.990Z,7.20
2018-05-07T00:17:18.089Z,7.20
2018-05-07T00:19:46.183Z,7.20
2018-05-07T00:22:15.071Z,7.40
2018-05-07T00:24:43.183Z,7.40
2018-05-07T00:27:11.326Z,7.30
2018-05-07T00:29:39.411Z,7.30
2018-05-07T00:32:07.518Z,7.30
2018-05-07T00:34:36.391Z,7.20
2018-05-07T00:37:04.483Z,7.20
2018-05-07T00:39:32.591Z,7.10
2018-05-07T00:42:01.483Z,7.00
2018-05-07T00:44:29.662Z,7.00
2018-05-07T00:46:57.791Z,7.00
2018-05-07T00:49:25.870Z,7.00
2018-05-07T00:51:54.901Z,6.90
2018-05-07T00:54:23.019Z,6.90
2018-05-07T00:56:51.144Z,6.80
2018-05-07T00:59:19.997Z,6.80
2018-05-07T01:01:48.145Z,6.80
2018-05-07T01:04:16.297Z,6.70
2018-05-07T01:06:44.457Z,6.80
2018-05-07T01:09:12.572Z,6.80
2018-05-07T01:11:40.650Z,6.80
2018-05-07T01:14:09.525Z,6.70
2018-05-07T01:16:37.646Z,6.70
2018-05-07T01:19:06.494Z,6.70
2018-05-07T01:21:34.603Z,6.70
2018-05-07T01:24:02.725Z,6.60
2018-05-07T01:26:31.592Z,6.60
2018-05-07T01:28:59.739Z,6.60
2018-05-07T01:31:27.885Z,6.70
2018-05-07T01:33:55.987Z,6.70
2018-05-07T01:36:24.847Z,6.50
2018-05-07T01:38:52.947Z,6.50
2018-05-07T01:41:21.127Z,6.40
2018-05-07T01:43:49.231Z,6.40
2018-05-07T01:46:17.340Z,6.30
2018-05-07T01:48:45.449Z,6.30
2018-05-07T01:51:13.535Z,6.50
2018-05-07T01:53:41.659Z,6.50
2018-05-07T01:56:09.772Z,6.50
2018-05-07T01:58:38.631Z,6.30
2018-05-07T02:01:06.731Z,6.30
2018-05-07T02:03:34.868Z,6.30
2018-05-07T02:06:02.950Z,6.20
2018-05-07T02:08:31.035Z,6.20
2018-05-07T02:10:59.149Z,6.10
2018-05-07T02:13:27.216Z,6.20
2018-05-07T02:15:55.301Z,6.20
2018-05-07T02:18:23.455Z,6.30
2018-05-07T02:20:52.280Z,6.20
2018-05-07T02:23:20.400Z,6.10
2018-05-07T02:25:48.498Z,6.20
2018-05-07T02:28:17.408Z,6.10
2018-05-07T02:30:45.522Z,6.10
2018-05-07T02:33:14.375Z,6.10
2018-05-07T02:35:42.458Z,6.10
2018-05-07T02:38:10.628Z,6.20
2018-05-07T02:40:38.708Z,6.10
2018-05-07T02:43:06.835Z,6.20
2018-05-07T02:45:35.734Z,6.20
2018-05-07T02:48:03.855Z,6.20
2018-05-07T02:50:32.704Z,5.80
2018-05-07T02:53:00.853Z,5.80
2018-05-07T02:55:28.943Z,5.70
2018-05-07T02:57:57.103Z,5.70
2018-05-07T03:00:26.000Z,5.70
2018-05-07T03:02:54.131Z,5.60
2018-05-07T03:05:22.215Z,5.60
2018-05-07T03:07:50.360Z,5.50
2018-05-07T03:10:19.265Z,5.50
2018-05-07T03:12:48.168Z,5.40
2018-05-07T03:15:16.237Z,5.40
2018-05-07T03:17:44.329Z,5.40
2018-05-07T03:20:13.187Z,5.30
2018-05-07T03:22:41.313Z,5.30
2018-05-07T03:25:10.166Z,5.30
2018-05-07T03:27:38.289Z,5.30
2018-05-07T03:30:06.437Z,5.20
2018-05-07T03:32:34.556Z,5.20
2018-05-07T03:35:02.661Z,5.20
2018-05-07T03:37:31.537Z,5.20
2018-05-07T03:39:59.621Z,5.10
2018-05-07T03:42:27.735Z,5.20
2018-05-07T03:44:56.602Z,5.20
2018-05-07T03:47:24.696Z,5.20
2018-05-07T03:49:52.799Z,5.30
2018-05-07T03:52:21.704Z,5.30
2018-05-07T03:54:49.810Z,5.30
2018-05-07T03:57:17.963Z,5.30
2018-05-07T03:59:46.926Z,5.50
2018-05-07T04:02:14.991Z,5.40
2018-05-07T04:04:43.077Z,5.40
2018-05-07T04:07:11.147Z,5.30
2018-05-07T04:09:40.008Z,5.30
2018-05-07T04:12:08.118Z,5.20
2018-05-07T04:14:36.223Z,5.40
2018-05-07T04:17:16.227Z,5.30
2018-05-07T04:19:56.207Z,5.30
2018-05-07T04:22:36.107Z,5.30
2018-05-07T04:25:05.011Z,5.70
2018-05-07T04:27:33.878Z,6.20
2018-05-07T04:30:01.949Z,6.20
2018-05-07T04:32:30.041Z,6.70
2018-05-07T04:34:58.145Z,7.10
2018-05-07T04:37:26.236Z,7.60
2018-05-07T04:39:54.337Z,8.00
2018-05-07T04:42:23.179Z,8.70
2018-05-07T04:44:51.271Z,8.70
2018-05-07T04:47:19.368Z,9.10
2018-05-07T04:49:47.454Z,9.60
2018-05-07T04:52:15.571Z,9.80
2018-05-07T04:54:44.439Z,10.60
2018-05-07T04:57:12.540Z,10.60
2018-05-07T04:59:40.662Z,10.80
2018-05-07T05:02:09.492Z,11.60
2018-05-07T05:04:37.592Z,11.60
2018-05-07T05:07:05.796Z,11.80
2018-05-07T05:09:34.597Z,12.70
2018-05-07T05:12:02.692Z,12.70
2018-05-07T05:14:30.795Z,12.60
2018-05-07T05:16:59.688Z,13.10
2018-05-07T05:19:27.788Z,13.00
2018-05-07T05:21:56.619Z,13.80
2018-05-07T05:24:24.703Z,13.70
2018-05-07T05:26:52.821Z,14.70
2018-05-07T05:29:20.913Z,15.10
2018-05-07T05:31:49.054Z,15.80
2018-05-07T05:34:17.147Z,15.90
2018-05-07T05:36:45.228Z,16.50
2018-05-07T05:39:13.322Z,16.80
2018-05-07T05:41:41.418Z,17.20
2018-05-07T05:44:09.532Z,17.00
2018-05-07T05:46:37.635Z,17.30
2018-05-07T05:49:05.696Z,17.60
2018-05-07T05:51:33.830Z,17.80
2018-05-07T05:54:01.931Z,18.00
2018-05-07T05:56:30.114Z,18.20
2018-05-07T05:58:58.201Z,18.70
2018-05-07T06:01:26.298Z,19.10
2018-05-07T06:03:54.380Z,19.10
2018-05-07T06:06:22.477Z,19.10
2018-05-07T06:08:50.571Z,19.90
2018-05-07T06:11:18.659Z,19.90
2018-05-07T06:13:46.759Z,19.70
2018-05-07T06:16:15.637Z,20.10
2018-05-07T06:18:43.695Z,20.00
2018-05-07T06:21:11.884Z,20.60
2018-05-07T06:23:39.983Z,20.40
2018-05-07T06:26:08.175Z,20.80
2018-05-07T06:28:36.268Z,20.90
2018-05-07T06:31:04.372Z,20.80
2018-05-07T06:33:33.218Z,21.20
2018-05-07T06:36:01.352Z,21.20
2018-05-07T06:38:29.406Z,21.70
2018-05-07T06:40:57.524Z,21.80
2018-05-07T06:43:26.429Z,22.10
2018-05-07T06:45:54.511Z,22.00
2018-05-07T06:48:22.584Z,22.10
2018-05-07T06:50:51.471Z,22.70
2018-05-07T06:53:19.539Z,22.60
2018-05-07T06:55:47.630Z,23.20
2018-05-07T06:58:15.730Z,23.10
2018-05-07T07:00:44.598Z,20.80
2018-05-07T07:03:12.660Z,20.70
2018-05-07T07:05:40.788Z,21.90
2018-05-07T07:08:08.949Z,21.60
2018-05-07T07:10:36.984Z,21.80
2018-05-07T07:13:05.052Z,22.30
2018-05-07T07:15:33.170Z,21.20
2018-05-07T07:18:02.002Z,21.10
2018-05-07T07:20:30.069Z,21.10
2018-05-07T07:22:58.162Z,20.80
2018-05-07T07:25:26.284Z,21.30
2018-05-07T07:27:54.489Z,20.50
2018-05-07T07:30:22.530Z,20.70
2018-05-07T07:32:50.639Z,22.30
2018-05-07T07:35:18.704Z,21.10
2018-05-07T07:37:46.804Z,20.70
2018-05-07T07:40:14.895Z,22.10
2018-05-07T07:42:42.999Z,23.60
2018-05-07T07:45:11.146Z,24.10
2018-05-07T07:47:39.218Z,22.60
2018-05-07T07:50:07.309Z,22.40
2018-05-07T07:52:35.414Z,22.90
2018-05-07T07:55:03.517Z,24.20
2018-05-07T07:57:31.599Z,23.50
2018-05-07T07:59:59.666Z,23.20
2018-05-07T08:02:27.746Z,24.20
2018-05-07T08:04:55.803Z,24.20
2018-05-07T08:07:23.930Z,24.00
2018-05-07T08:09:52.009Z,24.10
2018-05-07T08:12:20.242Z,23.90
2018-05-07T08:14:48.266Z,22.70
2018-05-07T08:17:16.340Z,22.10
2018-05-07T08:19:44.415Z,21.70
2018-05-07T08:22:12.519Z,23.60
2018-05-07T08:24:40.655Z,24.60
2018-05-07T08:27:08.690Z,23.20
2018-05-07T08:29:36.804Z,23.60
2018-05-07T08:32:04.911Z,23.60
2018-05-07T08:34:33.759Z,23.40
2018-05-07T08:37:01.913Z,23.60
2018-05-07T08:39:30.753Z,25.40
2018-05-07T08:41:58.829Z,25.40
2018-05-07T08:44:26.939Z,24.20
2018-05-07T08:46:55.019Z,23.40
2018-05-07T08:49:23.113Z,22.80
2018-05-07T08:51:51.190Z,23.20
2018-05-07T08:54:19.310Z,23.40
2018-05-07T08:56:48.181Z,23.30
2018-05-07T08:59:16.274Z,23.30
2018-05-07T09:01:44.383Z,23.90
2018-05-07T09:04:13.249Z,23.80
2018-05-07T09:06:41.347Z,23.80
2018-05-07T09:09:09.477Z,23.50
2018-05-07T09:11:37.581Z,23.40
2018-05-07T09:14:05.676Z,23.60
2018-05-07T09:16:33.768Z,23.40
2018-05-07T09:19:01.866Z,24.00
2018-05-07T09:21:29.950Z,24.20
2018-05-07T09:23:58.074Z,23.90
2018-05-07T09:26:26.919Z,24.00
2018-05-07T09:28:55.007Z,24.00
2018-05-07T09:31:23.190Z,24.30
2018-05-07T09:33:51.215Z,24.30
2018-05-07T09:36:19.287Z,24.90
2018-05-07T09:38:47.386Z,24.10
2018-05-07T09:41:15.468Z,25.70
2018-05-07T09:43:43.556Z,26.70
2018-05-07T09:46:11.669Z,26.80
2018-05-07T09:48:39.784Z,26.00
2018-05-07T09:51:07.866Z,24.40
2018-05-07T09:53:35.948Z,24.90
2018-05-07T09:56:04.080Z,25.60
2018-05-07T09:58:32.159Z,26.50
2018-05-07T10:01:00.229Z,26.00
2018-05-07T10:03:28.320Z,24.60
2018-05-07T10:05:56.419Z,25.40
2018-05-07T10:08:25.310Z,25.70
2018-05-07T10:10:53.399Z,25.70
2018-05-07T10:13:22.257Z,26.90
2018-05-07T10:15:50.341Z,26.90
2018-05-07T10:18:18.373Z,25.90
2018-05-07T10:20:46.441Z,25.80
2018-05-07T10:23:14.478Z,24.90
2018-05-07T10:25:42.542Z,25.40
2018-05-07T10:28:11.359Z,26.00
2018-05-07T10:30:39.394Z,25.20
2018-05-07T10:33:08.949Z,25.30
2018-05-07T10:35:37.758Z,25.10
2018-05-07T10:38:05.809Z,25.10
2018-05-07T10:40:33.836Z,25.20
2018-05-07T10:43:01.894Z,25.00
2018-05-07T10:45:30.703Z,25.90
2018-05-07T10:47:59.517Z,25.50
2018-05-07T10:50:27.572Z,25.40
2018-05-07T10:52:55.611Z,24.80
2018-05-07T10:55:23.674Z,25.20
2018-05-07T10:57:51.738Z,25.10
2018-05-07T11:00:20.542Z,25.90
2018-05-07T11:02:48.591Z,25.90
2018-05-07T11:05:16.625Z,26.00
2018-05-07T11:07:44.670Z,24.70
2018-05-07T11:10:12.714Z,24.50
2018-05-07T11:12:40.776Z,25.40
2018-05-07T11:15:08.821Z,24.40
2018-05-07T11:17:36.867Z,25.80
2018-05-07T11:20:04.911Z,25.70
2018-05-07T11:22:33.723Z,25.80
2018-05-07T11:25:01.779Z,25.80
2018-05-07T11:27:29.815Z,25.30
2018-05-07T11:29:57.862Z,25.80
2018-05-07T11:32:26.680Z,25.30
2018-05-07T11:34:54.714Z,25.20
2018-05-07T11:37:24.272Z,24.20
2018-05-07T11:39:53.081Z,24.40
2018-05-07T11:42:21.123Z,24.40
2018-05-07T11:44:49.166Z,24.50
2018-05-07T11:47:17.286Z,24.60
2018-05-07T11:49:46.035Z,25.20
2018-05-07T11:52:14.077Z,25.20
2018-05-07T11:54:42.138Z,24.60
2018-05-07T11:57:10.171Z,25.30
2018-05-07T11:59:38.977Z,24.60
2018-05-07T12:02:07.014Z,24.60
2018-05-07T12:04:35.061Z,25.20
2018-05-07T12:07:03.105Z,25.40
2018-05-07T12:09:31.156Z,26.40
2018-05-07T12:11:59.216Z,26.90
2018-05-07T12:14:27.244Z,27.30
2018-05-07T12:16:55.289Z,27.50
2018-05-07T12:19:23.335Z,27.80
2018-05-07T12:21:52.153Z,26.80
2018-05-07T12:24:20.203Z,26.80
2018-05-07T12:26:49.751Z,27.70
2018-05-07T12:29:17.810Z,26.80
2018-05-07T12:31:46.011Z,27.50
2018-05-07T12:34:13.890Z,27.50
2018-05-07T12:36:41.940Z,28.00
2018-05-07T12:39:09.986Z,27.20
2018-05-07T12:41:38.040Z,27.00
2018-05-07T12:44:06.868Z,26.30
2018-05-07T12:46:34.919Z,26.20
2018-05-07T12:49:03.735Z,26.00
2018-05-07T12:51:33.368Z,27.30
2018-05-07T12:54:01.406Z,27.20
2018-05-07T12:56:29.455Z,26.90
2018-05-07T12:58:57.488Z,28.10
2018-05-07T13:01:25.540Z,27.90
2018-05-07T13:03:53.580Z,26.70
2018-05-07T13:06:21.632Z,26.50
2018-05-07T13:08:49.679Z,27.00
2018-05-07T13:11:17.724Z,27.00
2018-05-07T13:13:45.770Z,27.40
2018-05-07T13:16:13.810Z,28.00
2018-05-07T13:18:41.846Z,26.70
2018-05-07T13:21:09.901Z,26.30
2018-05-07T13:23:37.943Z,26.40
2018-05-07T13:26:06.758Z,27.00
2018-05-07T13:28:34.792Z,27.00
2018-05-07T13:31:02.833Z,26.90
2018-05-07T13:33:30.876Z,25.50
2018-05-07T13:35:58.923Z,25.60
2018-05-07T13:38:26.966Z,25.60
2018-05-07T13:40:55.790Z,27.00
2018-05-07T13:43:23.890Z,27.00
2018-05-07T13:45:51.914Z,27.00
2018-05-07T13:48:20.737Z,27.60
2018-05-07T13:50:48.799Z,27.60
2018-05-07T13:53:16.840Z,27.30
2018-05-07T13:55:44.883Z,26.50
2018-05-07T13:58:13.680Z,28.00
2018-05-07T14:00:42.488Z,26.70
2018-05-07T14:03:11.300Z,26.60
2018-05-07T14:05:39.347Z,26.60
2018-05-07T14:08:07.383Z,27.00
2018-05-07T14:10:35.441Z,27.40
2018-05-07T14:13:04.242Z,27.50
2018-05-07T14:15:33.052Z,26.60
2018-05-07T14:18:01.135Z,26.60
2018-05-07T14:20:30.004Z,25.60
2018-05-07T14:22:58.106Z,25.60
2018-05-07T14:25:27.024Z,26.20
2018-05-07T14:27:55.905Z,25.60
2018-05-07T14:30:24.013Z,25.60
2018-05-07T14:32:52.893Z,26.70
2018-05-07T14:35:20.936Z,26.70
2018-05-07T14:37:49.400Z,27.10
2018-05-07T14:40:17.538Z,27.00
2018-05-07T14:42:45.631Z,26.60
2018-05-07T14:45:13.715Z,26.50
2018-05-07T14:47:41.815Z,26.70
2018-05-07T14:50:09.922Z,26.80
2018-05-07T14:52:38.784Z,26.10
2018-05-07T14:55:06.880Z,26.10
2018-05-07T14:57:34.976Z,25.30
2018-05-07T15:00:03.060Z,25.60
2018-05-07T15:02:31.929Z,25.40
2018-05-07T15:05:00.035Z,25.30
2018-05-07T15:07:28.149Z,25.20
2018-05-07T15:09:57.011Z,24.70
2018-05-07T15:12:25.130Z,24.60
2018-05-07T15:14:54.010Z,24.40
2018-05-07T15:17:22.169Z,24.40
2018-05-07T15:19:50.273Z,24.30
2018-05-07T15:22:19.861Z,24.20
2018-05-07T15:24:47.965Z,24.20
2018-05-07T15:27:16.109Z,24.20
2018-05-07T15:29:44.221Z,24.00
2018-05-07T15:32:12.301Z,23.90
2018-05-07T15:34:40.388Z,23.90
2018-05-07T15:37:08.507Z,23.90
2018-05-07T15:39:36.615Z,24.00
2018-05-07T15:42:05.475Z,24.00
2018-05-07T15:44:33.589Z,24.00
2018-05-07T15:47:01.687Z,24.10
2018-05-07T15:49:29.789Z,24.00
2018-05-07T15:51:58.704Z,24.10
2018-05-07T15:54:26.808Z,24.10
2018-05-07T15:56:54.933Z,23.90
2018-05-07T15:59:23.001Z,23.90
2018-05-07T16:01:51.109Z,24.00
2018-05-07T16:04:19.932Z,23.90
2018-05-07T16:06:48.889Z,23.90
2018-05-07T16:09:17.007Z,23.80
2018-05-07T16:11:45.889Z,23.90
2018-05-07T16:14:13.985Z,23.90
2018-05-07T16:16:42.067Z,23.80
2018-05-07T16:19:10.164Z,23.80
2018-05-07T16:21:39.029Z,23.70
2018-05-07T16:24:07.112Z,23.70
2018-05-07T16:26:35.293Z,23.60
2018-05-07T16:29:03.277Z,23.60
2018-05-07T16:31:31.420Z,23.60
2018-05-07T16:34:00.260Z,23.50
2018-05-07T16:36:28.372Z,23.50
2018-05-07T16:38:56.492Z,23.60
2018-05-07T16:41:24.573Z,23.60
2018-05-07T16:43:53.473Z,23.40
2018-05-07T16:46:22.320Z,23.50
2018-05-07T16:48:50.405Z,23.50
2018-05-07T16:51:18.524Z,23.40
2018-05-07T16:53:46.624Z,23.30
2018-05-07T16:56:15.504Z,23.20
2018-05-07T16:58:43.598Z,23.10
2018-05-07T17:01:11.703Z,23.10
2018-05-07T17:03:39.818Z,23.10
2018-05-07T17:06:07.887Z,23.00
2018-05-07T17:08:36.012Z,22.90
2018-05-07T17:11:04.103Z,22.90
2018-05-07T17:13:32.220Z,22.80
2018-05-07T17:16:00.322Z,22.80
2018-05-07T17:18:29.228Z,22.80
2018-05-07T17:20:57.323Z,22.70
2018-05-07T17:23:25.477Z,22.80
2018-05-07T17:25:53.540Z,22.70
2018-05-07T17:28:21.642Z,22.70
2018-05-07T17:30:49.717Z,22.60
2018-05-07T17:33:17.855Z,22.70
2018-05-07T17:35:45.922Z,22.60
2018-05-07T17:38:14.792Z,22.60
2018-05-07T17:40:42.855Z,22.50
2018-05-07T17:43:10.931Z,22.50
2018-05-07T17:45:57.875Z,22.50
2018-05-07T17:48:37.797Z,22.40
2018-05-07T17:51:05.875Z,22.30
2018-05-07T17:53:33.994Z,22.30
2018-05-07T17:56:02.088Z,22.20
2018-05-07T17:58:30.185Z,22.10
2018-05-07T18:00:58.293Z,22.20
2018-05-07T18:03:27.941Z,22.10
2018-05-07T18:05:56.098Z,22.10
2018-05-07T18:08:24.248Z,22.00
2018-05-07T18:10:52.314Z,21.90
2018-05-07T18:13:20.445Z,21.90
2018-05-07T18:15:48.563Z,21.70
2018-05-07T18:18:17.520Z,21.60
2018-05-07T18:20:45.608Z,21.60
2018-05-07T18:23:13.729Z,21.50
2018-05-07T18:25:42.617Z,21.50
2018-05-07T18:28:10.733Z,21.50
2018-05-07T18:30:38.836Z,21.30
2018-05-07T18:33:06.953Z,21.30
2018-05-07T18:35:35.082Z,21.20
2018-05-07T18:38:03.938Z,21.20
2018-05-07T18:40:32.003Z,21.20
2018-05-07T18:43:00.081Z,21.10
2018-05-07T18:45:28.169Z,21.10
2018-05-07T18:47:56.284Z,21.00
2018-05-07T18:50:24.401Z,20.90
2018-05-07T18:52:52.487Z,20.80
2018-05-07T18:55:21.463Z,20.50
2018-05-07T18:57:49.567Z,20.50
2018-05-07T19:00:18.434Z,20.30
2018-05-07T19:02:46.523Z,20.20
2018-05-07T19:05:14.676Z,20.20
2018-05-07T19:07:42.774Z,20.10
2018-05-07T19:10:10.863Z,19.90
2018-05-07T19:12:39.036Z,19.80
2018-05-07T19:15:07.130Z,19.70
2018-05-07T19:17:35.179Z,19.60
2018-05-07T19:20:04.201Z,19.40
2018-05-07T19:22:33.175Z,19.40
2018-05-07T19:25:01.410Z,19.30
2018-05-07T19:27:29.523Z,19.30
2018-05-07T19:29:57.667Z,19.20
2018-05-07T19:32:25.735Z,19.30
2018-05-07T19:34:54.587Z,19.10
2018-05-07T19:37:22.909Z,19.10
2018-05-07T19:39:51.107Z,19.20
2018-05-07T19:42:19.156Z,19.30
2018-05-07T19:44:47.388Z,19.30
2018-05-07T19:47:16.336Z,18.60
2018-05-07T19:49:44.471Z,18.60
2018-05-07T19:52:13.401Z,17.50
2018-05-07T19:54:41.544Z,17.50
2018-05-07T19:57:09.791Z,17.20
2018-05-07T19:59:38.032Z,17.00
2018-05-07T20:02:07.201Z,16.50
2018-05-07T20:04:35.289Z,16.50
2018-05-07T20:07:03.654Z,16.30
2018-05-07T20:09:31.756Z,16.10
2018-05-07T20:11:59.894Z,15.90
2018-05-07T20:14:27.971Z,15.70
2018-05-07T20:16:56.121Z,15.50
2018-05-07T20:19:24.208Z,15.40
2018-05-07T20:21:53.295Z,15.20
2018-05-07T20:24:21.399Z,15.00
2018-05-07T20:26:49.496Z,14.70
2018-05-07T20:29:17.605Z,14.50
2018-05-07T20:31:45.742Z,14.40
2018-05-07T20:34:13.835Z,14.20
2018-05-07T20:36:41.922Z,14.10
2018-05-07T20:39:10.031Z,13.90
2018-05-07T20:41:38.172Z,13.80
2018-05-07T20:44:06.274Z,13.70
2018-05-07T20:46:34.444Z,13.60
2018-05-07T20:49:02.570Z,13.50
2018-05-07T20:51:30.697Z,13.50
2018-05-07T20:53:59.564Z,13.20
2018-05-07T20:56:27.697Z,13.20
2018-05-07T20:58:55.828Z,13.10
2018-05-07T21:01:23.927Z,12.90
2018-05-07T21:03:52.020Z,12.80
2018-05-07T21:06:20.125Z,12.70
2018-05-07T21:08:48.328Z,12.70
2018-05-07T21:11:16.576Z,12.50
2018-05-07T21:13:44.720Z,12.50
2018-05-07T21:16:12.860Z,12.40
2018-05-07T21:18:40.992Z,12.40
2018-05-07T21:21:09.114Z,12.40
2018-05-07T21:23:37.207Z,12.40
2018-05-07T21:26:05.333Z,12.30
2018-05-07T21:28:33.415Z,12.30
2018-05-07T21:31:01.539Z,12.10
2018-05-07T21:33:29.644Z,12.00
2018-05-07T21:35:57.760Z,12.10
2018-05-07T21:38:25.885Z,12.10
2018-05-07T21:40:53.997Z,12.30
2018-05-07T21:43:22.107Z,12.10
2018-05-07T21:45:51.095Z,11.80
2018-05-07T21:48:19.283Z,11.80
2018-05-07T21:50:48.163Z,11.70
2018-05-07T21:53:16.279Z,11.70
2018-05-07T21:55:45.189Z,11.60
2018-05-07T21:58:13.279Z,11.60
2018-05-07T22:00:41.371Z,11.50
2018-05-07T22:03:09.500Z,11.40
2018-05-07T22:05:37.615Z,11.40
2018-05-07T22:08:06.679Z,11.10
2018-05-07T22:10:34.693Z,11.10
2018-05-07T22:13:02.856Z,11.10
2018-05-07T22:15:30.939Z,11.30
2018-05-07T22:17:59.097Z,11.50
2018-05-07T22:20:27.180Z,11.70
2018-05-07T22:22:55.336Z,11.70
2018-05-07T22:25:24.227Z,11.50
2018-05-07T22:27:52.347Z,11.50
2018-05-07T22:30:20.444Z,11.30
2018-05-07T22:32:48.571Z,11.20
2018-05-07T22:35:16.678Z,11.10
2018-05-07T22:37:44.781Z,10.90
2018-05-07T22:40:13.640Z,10.60
2018-05-07T22:42:41.773Z,10.60
2018-05-07T22:45:09.891Z,10.60
2018-05-07T22:47:38.041Z,10.70
2018-05-07T22:50:06.136Z,10.50
2018-05-07T22:52:34.272Z,10.40
2018-05-07T22:55:02.445Z,10.30
2018-05-07T22:57:30.536Z,10.10
2018-05-07T22:59:58.616Z,10.00
2018-05-07T23:02:26.720Z,10.00
2018-05-07T23:04:54.834Z,10.10
2018-05-07T23:07:23.704Z,9.80
2018-05-07T23:09:51.816Z,9.80
2018-05-07T23:12:20.669Z,9.60
2018-05-07T23:14:48.808Z,9.60
2018-05-07T23:17:16.878Z,9.60
2018-05-07T23:19:46.499Z,9.60
2018-05-07T23:22:14.602Z,9.60
2018-05-07T23:24:43.480Z,9.30
2018-05-07T23:27:11.631Z,9.30
2018-05-07T23:29:39.764Z,9.30
2018-05-07T23:32:08.632Z,9.50
2018-05-07T23:34:36.732Z,9.50
2018-05-07T23:37:04.834Z,9.40
2018-05-07T23:39:32.898Z,9.20
2018-05-07T23:42:00.997Z,9.10
2018-05-07T23:44:29.106Z,9.10
2018-05-07T23:46:57.969Z,9.30
2018-05-07T23:49:26.062Z,9.30
2018-05-07T23:51:54.201Z,9.70
2018-05-07T23:54:22.264Z,9.80
2018-05-07T23:56:50.381Z,9.50
2018-05-07T23:59:18.441Z,9.40
